Ear Falls Airport


Codes: CYMY/
Name: Ear Falls Airport
City: Ear Falls
Country: Canada
Elevation: 1269 ft.
Wikipedia:

Photos at Ear Falls Airport


   Photos courtesy of SpottingLog. You can add your own sightings and photos by signing up for a free trial today.



No photos found.

Weather at Ear Falls Airport


Time (UTC)DescriptionTempratureWindCloud coverageVisibilityPressureHumidity
26-Jun-2024 00:00Overcast Clouds16°C9 mph, N100%10000m1008hPa71%
26-Jun-2024 03:00Overcast Clouds13°C4 mph, NE100%10000m1010hPa74%
26-Jun-2024 06:00Overcast Clouds11°C4 mph, NE100%10000m1013hPa76%
26-Jun-2024 09:00Overcast Clouds11°C2 mph, NE100%10000m1014hPa76%
26-Jun-2024 12:00Overcast Clouds11°C2 mph, NW100%10000m1015hPa74%
26-Jun-2024 15:00Broken Clouds15°C7 mph, NW51%10000m1015hPa54%
26-Jun-2024 18:00Light Rain15°C9 mph, NW75%10000m1015hPa55%
26-Jun-2024 21:00Overcast Clouds15°C7 mph, NW98%10000m1015hPa50%
27-Jun-2024 00:00Overcast Clouds17°C4 mph, NW99%10000m1013hPa47%
27-Jun-2024 03:00Broken Clouds11°C4 mph, NW57%10000m1014hPa67%
27-Jun-2024 06:00Scattered Clouds8°C2 mph, NW32%10000m1015hPa77%
27-Jun-2024 09:00Clear Sky7°C2 mph, W9%10000m1015hPa83%
27-Jun-2024 12:00Few Clouds11°C2 mph, W13%10000m1015hPa69%
27-Jun-2024 15:00Few Clouds17°C4 mph, SW23%10000m1013hPa46%
27-Jun-2024 18:00Broken Clouds20°C4 mph, SW53%10000m1010hPa34%
27-Jun-2024 21:00Overcast Clouds21°C4 mph, SW100%10000m1009hPa32%
28-Jun-2024 00:00Overcast Clouds16°C4 mph, S100%10000m1007hPa55%
28-Jun-2024 03:00Light Rain12°C7 mph, S100%10000m1007hPa90%
28-Jun-2024 06:00Light Rain11°C4 mph, NE100%10000m1007hPa96%
28-Jun-2024 09:00Light Rain11°C9 mph, E100%10000m1005hPa98%
28-Jun-2024 12:00Light Rain11°C11 mph, NE100%10000m1003hPa96%
28-Jun-2024 15:00Light Rain11°C13 mph, NE100%10000m1002hPa95%
28-Jun-2024 18:00Light Rain11°C13 mph, NE100%10000m1002hPa96%
28-Jun-2024 21:00Light Rain11°C13 mph, NE100%10000m1003hPa95%
29-Jun-2024 00:00Light Rain10°C13 mph, NE100%10000m1004hPa94%
29-Jun-2024 03:00Light Rain9°C13 mph, NE100%8187m1006hPa91%
29-Jun-2024 06:00Light Rain7°C16 mph, NE100%10000m1008hPa91%
29-Jun-2024 09:00Light Rain6°C13 mph, NE100%10000m1010hPa93%
29-Jun-2024 12:00Light Rain6°C11 mph, NE100%10000m1014hPa89%
29-Jun-2024 15:00Overcast Clouds11°C11 mph, N97%10000m1016hPa50%
29-Jun-2024 18:00Overcast Clouds15°C9 mph, N99%10000m1017hPa34%
29-Jun-2024 21:00Overcast Clouds18°C9 mph, N100%10000m1017hPa27%
30-Jun-2024 00:00Overcast Clouds17°C4 mph, N100%10000m1019hPa40%
30-Jun-2024 03:00Overcast Clouds11°C4 mph, W100%10000m1021hPa56%
30-Jun-2024 06:00Overcast Clouds9°C4 mph, W100%10000m1023hPa73%
30-Jun-2024 09:00Broken Clouds7°C4 mph, NW52%10000m1024hPa79%
30-Jun-2024 12:00Scattered Clouds10°C4 mph, W28%10000m1025hPa67%
30-Jun-2024 15:00Clear Sky18°C4 mph, W0%10000m1025hPa44%
30-Jun-2024 18:00Clear Sky21°C7 mph, SW1%10000m1023hPa32%
30-Jun-2024 21:00Clear Sky22°C4 mph, SW6%10000m1021hPa30%